createdAt,value
2023-05-16T00:01:48.631Z,45.66
2023-05-16T00:04:19.457Z,45.85
2023-05-16T00:06:49.770Z,45.86
2023-05-16T00:09:20.183Z,45.94
2023-05-16T00:11:50.678Z,45.76
2023-05-16T00:14:22.273Z,45.99
2023-05-16T00:16:54.370Z,45.72
2023-05-16T00:19:24.579Z,45.50
2023-05-16T00:21:55.349Z,46.00
2023-05-16T00:24:25.812Z,46.11
2023-05-16T00:26:56.457Z,46.00
2023-05-16T00:29:26.966Z,45.80
2023-05-16T00:31:59.587Z,45.73
2023-05-16T00:34:30.266Z,45.67
2023-05-16T00:37:00.844Z,46.19
2023-05-16T00:39:31.330Z,45.85
2023-05-16T00:42:01.833Z,46.24
2023-05-16T00:44:32.279Z,46.17
2023-05-16T00:47:04.861Z,46.44
2023-05-16T00:49:35.476Z,46.43
2023-05-16T00:52:07.340Z,46.55
2023-05-16T00:54:37.785Z,46.41
2023-05-16T00:57:09.536Z,46.66
2023-05-16T00:59:40.508Z,46.77
2023-05-16T01:02:12.052Z,46.93
2023-05-16T01:04:43.029Z,46.66
2023-05-16T01:07:14.039Z,47.08
2023-05-16T01:09:44.151Z,47.06
2023-05-16T01:12:21.946Z,47.15
2023-05-16T01:15:04.696Z,46.91
2023-05-16T01:17:52.744Z,46.88
2023-05-16T01:20:36.677Z,47.12
2023-05-16T01:23:44.027Z,46.94
2023-05-16T01:26:22.800Z,47.45
2023-05-16T01:28:55.006Z,47.19
2023-05-16T01:31:26.808Z,47.48
2023-05-16T01:33:57.370Z,47.53
2023-05-16T01:36:38.683Z,47.76
2023-05-16T01:39:19.988Z,47.83
2023-05-16T01:42:06.564Z,47.38
2023-05-16T01:44:45.963Z,47.99
2023-05-16T01:47:18.971Z,48.04
2023-05-16T01:49:59.481Z,47.76
2023-05-16T01:52:40.982Z,48.02
2023-05-16T01:55:19.424Z,47.88
2023-05-16T01:57:56.156Z,47.79
2023-05-16T02:00:27.129Z,48.13
2023-05-16T02:02:57.613Z,48.01
2023-05-16T02:05:28.862Z,48.17
2023-05-16T02:08:00.139Z,48.02
2023-05-16T02:10:31.204Z,48.23
2023-05-16T02:13:03.789Z,48.28
2023-05-16T02:15:34.359Z,48.11
2023-05-16T02:18:04.928Z,48.29
2023-05-16T02:20:35.989Z,48.22
2023-05-16T02:23:06.056Z,48.28
2023-05-16T02:25:36.533Z,48.20
2023-05-16T02:28:09.368Z,48.30
2023-05-16T02:30:40.024Z,48.39
2023-05-16T02:33:10.592Z,48.38
2023-05-16T02:35:41.656Z,48.65
2023-05-16T02:38:11.777Z,48.57
2023-05-16T02:40:41.728Z,48.49
2023-05-16T02:43:14.230Z,48.28
2023-05-16T02:45:44.914Z,48.47
2023-05-16T02:48:15.529Z,48.29
2023-05-16T02:50:45.583Z,48.69
2023-05-16T02:53:16.004Z,48.56
2023-05-16T02:55:46.934Z,48.75
2023-05-16T02:58:19.328Z,48.72
2023-05-16T03:00:49.915Z,48.66
2023-05-16T03:03:20.452Z,48.75
2023-05-16T03:05:50.555Z,48.49
2023-05-16T03:08:21.198Z,48.45
2023-05-16T03:10:51.692Z,48.60
2023-05-16T03:13:24.132Z,48.61
2023-05-16T03:15:54.970Z,48.79
2023-05-16T03:18:25.104Z,48.65
2023-05-16T03:20:55.385Z,48.50
2023-05-16T03:23:25.415Z,48.79
2023-05-16T03:25:56.607Z,48.71
2023-05-16T03:28:30.002Z,48.65
2023-05-16T03:31:00.901Z,48.71
2023-05-16T03:33:31.724Z,48.92
2023-05-16T03:36:02.517Z,48.68
2023-05-16T03:38:33.123Z,49.18
2023-05-16T03:41:03.632Z,48.36
2023-05-16T03:43:35.625Z,48.66
2023-05-16T03:46:05.536Z,48.89
2023-05-16T03:48:36.352Z,48.68
2023-05-16T03:51:08.986Z,48.59
2023-05-16T03:53:40.335Z,48.91
2023-05-16T03:56:10.870Z,48.93
2023-05-16T03:58:43.379Z,49.07
2023-05-16T04:01:13.852Z,48.97
2023-05-16T04:03:44.230Z,49.05
2023-05-16T04:06:14.896Z,49.01
2023-05-16T04:08:45.515Z,48.97
2023-05-16T04:11:16.025Z,49.48
2023-05-16T04:13:48.889Z,48.94
2023-05-16T04:16:19.342Z,48.96
2023-05-16T04:18:50.210Z,49.07
2023-05-16T04:21:21.215Z,49.17
2023-05-16T04:23:51.163Z,49.09
2023-05-16T04:26:22.410Z,48.89
2023-05-16T04:28:53.867Z,49.15
2023-05-16T04:31:25.313Z,49.66
2023-05-16T04:33:56.515Z,49.22
2023-05-16T04:36:30.479Z,49.41
2023-05-16T04:39:00.836Z,49.11
2023-05-16T04:41:31.402Z,49.33
2023-05-16T04:44:06.072Z,49.36
2023-05-16T04:46:36.589Z,49.41
2023-05-16T04:49:06.657Z,49.29
2023-05-16T04:51:36.512Z,49.16
2023-05-16T04:54:06.686Z,49.38
2023-05-16T04:56:37.098Z,49.40
2023-05-16T04:59:09.587Z,49.12
2023-05-16T05:01:40.234Z,49.19
2023-05-16T05:04:10.830Z,49.51
2023-05-16T05:06:41.707Z,49.33
2023-05-16T05:09:12.297Z,49.61
2023-05-16T05:11:42.149Z,49.23
2023-05-16T05:14:14.767Z,49.59
2023-05-16T05:16:45.240Z,49.44
2023-05-16T05:19:15.789Z,49.58
2023-05-16T05:21:45.912Z,49.43
2023-05-16T05:24:16.470Z,49.44
2023-05-16T05:26:46.735Z,49.72
2023-05-16T05:29:18.378Z,49.61
2023-05-16T05:31:48.920Z,49.76
2023-05-16T05:34:19.393Z,49.74
2023-05-16T05:36:49.975Z,49.71
2023-05-16T05:39:20.622Z,49.36
2023-05-16T05:41:51.587Z,49.82
2023-05-16T05:44:23.451Z,49.79
2023-05-16T05:46:54.097Z,49.63
2023-05-16T05:49:24.629Z,49.52
2023-05-16T05:51:55.347Z,49.33
2023-05-16T05:54:25.960Z,49.67
2023-05-16T05:56:56.439Z,49.15
2023-05-16T05:59:29.119Z,49.59
2023-05-16T06:01:59.963Z,49.21
2023-05-16T06:04:30.573Z,49.42
2023-05-16T06:07:00.416Z,49.24
2023-05-16T06:09:30.958Z,48.67
2023-05-16T06:12:01.473Z,49.00
2023-05-16T06:14:33.646Z,49.17
2023-05-16T06:17:04.189Z,48.69
2023-05-16T06:19:34.693Z,48.97
2023-05-16T06:22:05.199Z,48.61
2023-05-16T06:24:35.788Z,48.83
2023-05-16T06:27:06.468Z,48.71
2023-05-16T06:29:38.582Z,48.50
2023-05-16T06:32:12.451Z,48.47
2023-05-16T06:34:43.835Z,48.41
2023-05-16T06:37:14.312Z,47.77
2023-05-16T06:39:44.316Z,48.22
2023-05-16T06:42:15.313Z,48.54
2023-05-16T06:44:47.568Z,48.05
2023-05-16T06:47:18.570Z,48.21
2023-05-16T06:49:48.583Z,48.35
2023-05-16T06:52:18.549Z,47.93
2023-05-16T06:54:49.092Z,47.88
2023-05-16T06:57:19.794Z,48.41
2023-05-16T06:59:52.389Z,48.26
2023-05-16T07:02:22.989Z,47.96
2023-05-16T07:04:53.575Z,47.88
2023-05-16T07:07:24.121Z,48.32
2023-05-16T07:09:54.061Z,48.16
2023-05-16T07:12:24.686Z,48.03
2023-05-16T07:14:57.170Z,48.28
2023-05-16T07:17:27.152Z,48.34
2023-05-16T07:19:57.042Z,47.89
2023-05-16T07:22:27.721Z,48.35
2023-05-16T07:25:01.504Z,48.49
2023-05-16T07:27:32.540Z,47.90
2023-05-16T07:30:05.124Z,48.39
2023-05-16T07:32:35.662Z,48.05
2023-05-16T07:35:05.999Z,48.11
2023-05-16T07:37:37.564Z,47.87
2023-05-16T07:40:10.179Z,48.14
2023-05-16T07:42:40.709Z,47.80
2023-05-16T07:45:13.831Z,47.96
2023-05-16T07:47:44.422Z,48.20
2023-05-16T07:50:15.378Z,47.85
2023-05-16T07:52:45.542Z,47.58
2023-05-16T07:55:16.462Z,47.62
2023-05-16T07:57:47.106Z,47.62
2023-05-16T08:00:22.864Z,47.87
2023-05-16T08:02:54.292Z,47.29
2023-05-16T08:05:25.093Z,47.48
2023-05-16T08:07:55.313Z,47.22
2023-05-16T08:10:26.240Z,47.27
2023-05-16T08:12:59.096Z,47.06
2023-05-16T08:15:31.427Z,47.03
2023-05-16T08:18:03.079Z,47.11
2023-05-16T08:20:32.863Z,47.33
2023-05-16T08:23:03.374Z,46.95
2023-05-16T08:25:33.874Z,47.18
2023-05-16T08:28:04.093Z,47.03
2023-05-16T08:30:37.426Z,46.97
2023-05-16T08:33:09.748Z,46.88
2023-05-16T08:35:40.358Z,46.93
2023-05-16T08:38:10.221Z,46.99
2023-05-16T08:40:40.581Z,47.23
2023-05-16T08:43:11.622Z,47.04
2023-05-16T08:45:44.648Z,47.32
2023-05-16T08:48:15.265Z,47.32
2023-05-16T08:50:46.901Z,47.00
2023-05-16T08:53:29.806Z,47.22
2023-05-16T08:56:01.914Z,46.54
2023-05-16T08:58:32.674Z,46.87
2023-05-16T09:01:09.487Z,46.72
2023-05-16T09:03:41.430Z,46.89
2023-05-16T09:06:12.140Z,46.44
2023-05-16T09:08:42.629Z,46.39
2023-05-16T09:11:13.516Z,46.32
2023-05-16T09:13:44.112Z,46.20
2023-05-16T09:16:18.070Z,46.51
2023-05-16T09:18:55.668Z,46.38
2023-05-16T09:21:33.731Z,46.50
2023-05-16T09:24:07.809Z,46.61
2023-05-16T09:26:39.801Z,45.85
2023-05-16T09:29:14.044Z,46.07
2023-05-16T09:31:46.697Z,46.30
2023-05-16T09:34:17.247Z,46.47
2023-05-16T09:36:47.621Z,46.30
2023-05-16T09:39:19.229Z,46.16
2023-05-16T09:41:54.281Z,45.57
2023-05-16T09:44:24.775Z,46.05
2023-05-16T09:46:59.185Z,45.78
2023-05-16T09:49:30.243Z,45.71
2023-05-16T09:52:04.068Z,45.65
2023-05-16T09:54:35.344Z,45.09
2023-05-16T09:57:06.506Z,45.78
2023-05-16T09:59:40.224Z,45.33
2023-05-16T10:02:13.550Z,45.00
2023-05-16T10:04:43.820Z,45.50
2023-05-16T10:07:15.170Z,45.53
2023-05-16T10:09:49.139Z,44.82
2023-05-16T10:12:20.337Z,45.22
2023-05-16T10:14:50.986Z,44.68
2023-05-16T10:17:23.794Z,45.02
2023-05-16T10:19:56.430Z,45.36
2023-05-16T10:22:28.896Z,45.22
2023-05-16T10:25:16.647Z,45.00
2023-05-16T10:27:48.422Z,44.69
2023-05-16T10:30:20.767Z,44.76
2023-05-16T10:32:55.947Z,44.56
2023-05-16T10:35:28.414Z,44.71
2023-05-16T10:38:00.095Z,45.12
2023-05-16T10:40:32.607Z,45.17
2023-05-16T10:43:05.051Z,44.86
2023-05-16T10:45:35.932Z,45.28
2023-05-16T10:48:10.380Z,44.96
2023-05-16T10:50:44.044Z,45.18
2023-05-16T10:53:20.985Z,45.00
2023-05-16T10:56:11.210Z,45.46
2023-05-16T10:58:50.742Z,45.16
2023-05-16T11:01:24.778Z,45.13
2023-05-16T11:04:13.014Z,45.64
2023-05-16T11:06:57.175Z,45.46
2023-05-16T11:09:29.521Z,45.65
2023-05-16T11:12:06.980Z,45.56
2023-05-16T11:14:45.660Z,45.70
2023-05-16T11:17:17.882Z,45.26
2023-05-16T11:20:00.057Z,45.49
2023-05-16T11:22:32.391Z,45.33
2023-05-16T11:25:04.803Z,45.59
2023-05-16T11:27:38.185Z,45.35
2023-05-16T11:30:18.141Z,45.29
2023-05-16T11:32:51.253Z,45.71
2023-05-16T11:35:23.672Z,45.04
2023-05-16T11:37:54.841Z,45.09
2023-05-16T11:40:24.824Z,45.52
2023-05-16T11:42:55.784Z,45.22
2023-05-16T11:45:26.775Z,45.42
2023-05-16T11:47:58.077Z,45.69
2023-05-16T11:50:31.244Z,45.11
2023-05-16T11:53:04.901Z,45.12
2023-05-16T11:58:09.422Z,45.57
2023-05-16T12:00:39.811Z,45.11
2023-05-16T12:03:10.476Z,45.53
2023-05-16T12:06:03.618Z,45.30
2023-05-16T12:08:34.730Z,45.53
2023-05-16T12:11:05.796Z,45.60
2023-05-16T12:13:36.795Z,45.34
2023-05-16T12:16:08.032Z,45.65
2023-05-16T12:18:41.924Z,45.65
2023-05-16T12:21:16.750Z,45.48
2023-05-16T12:23:47.367Z,45.26
2023-05-16T12:26:18.422Z,44.98
2023-05-16T12:28:49.123Z,45.58
2023-05-16T12:31:31.543Z,44.95
2023-05-16T12:34:03.846Z,45.30
2023-05-16T12:36:38.357Z,44.88
2023-05-16T12:39:10.605Z,44.71
2023-05-16T12:41:44.350Z,45.02
2023-05-16T12:44:17.708Z,44.94
2023-05-16T12:46:50.246Z,44.93
2023-05-16T12:49:23.800Z,44.99
2023-05-16T12:52:00.578Z,44.85
2023-05-16T12:54:31.663Z,44.74
2023-05-16T12:57:01.762Z,44.56
2023-05-16T12:59:32.234Z,43.95
2023-05-16T13:02:02.928Z,44.05
2023-05-16T13:04:34.012Z,43.96
2023-05-16T13:07:07.645Z,44.29
2023-05-16T13:09:38.167Z,44.26
2023-05-16T13:12:09.164Z,43.66
2023-05-16T13:14:41.793Z,43.75
2023-05-16T13:17:14.208Z,43.50
2023-05-16T13:19:46.325Z,43.88
2023-05-16T13:22:20.214Z,43.80
2023-05-16T13:24:50.918Z,43.86
2023-05-16T13:27:21.514Z,43.44
2023-05-16T13:29:52.100Z,43.64
2023-05-16T13:32:21.919Z,43.17
2023-05-16T13:34:52.562Z,43.29
2023-05-16T13:37:26.238Z,42.94
2023-05-16T13:39:57.054Z,43.25
2023-05-16T13:42:27.190Z,43.01
2023-05-16T13:44:57.585Z,42.69
2023-05-16T13:47:27.520Z,43.07
2023-05-16T13:49:58.199Z,42.56
2023-05-16T13:52:31.277Z,42.53
2023-05-16T13:55:02.152Z,42.47
2023-05-16T13:57:33.503Z,42.15
2023-05-16T14:00:43.638Z,42.18
2023-05-16T14:02:56.311Z,42.44
2023-05-16T14:05:27.115Z,42.18
2023-05-16T14:07:58.644Z,41.88
2023-05-16T14:10:29.411Z,41.79
2023-05-16T14:13:00.186Z,41.53
2023-05-16T14:15:30.907Z,41.51
2023-05-16T14:18:01.860Z,41.85
2023-05-16T14:20:32.314Z,41.27
2023-05-16T14:23:04.917Z,41.34
2023-05-16T14:25:35.409Z,41.49
2023-05-16T14:28:06.200Z,41.39
2023-05-16T14:30:37.707Z,41.22
2023-05-16T14:33:08.723Z,40.85
2023-05-16T14:35:40.106Z,41.39
2023-05-16T14:38:12.792Z,40.92
2023-05-16T14:40:45.285Z,40.62
2023-05-16T14:43:15.528Z,40.82
2023-05-16T14:45:46.273Z,40.47
2023-05-16T14:48:17.475Z,40.77
2023-05-16T14:50:48.110Z,40.33
2023-05-16T14:53:22.031Z,40.55
2023-05-16T14:55:52.269Z,40.50
2023-05-16T14:58:22.782Z,39.98
2023-05-16T15:00:53.915Z,40.32
2023-05-16T15:03:24.645Z,39.68
2023-05-16T15:05:55.599Z,39.62
2023-05-16T15:08:27.558Z,39.64
2023-05-16T15:10:58.054Z,40.09
2023-05-16T15:13:28.683Z,39.68
2023-05-16T15:15:59.600Z,39.34
2023-05-16T15:18:29.794Z,39.38
2023-05-16T15:21:00.752Z,39.72
2023-05-16T15:23:32.867Z,39.70
2023-05-16T15:26:03.347Z,39.51
2023-05-16T15:28:33.924Z,39.20
2023-05-16T15:31:06.119Z,39.19
2023-05-16T15:33:36.928Z,38.88
2023-05-16T15:36:08.637Z,38.86
2023-05-16T15:38:44.573Z,39.30
2023-05-16T15:41:36.794Z,38.95
2023-05-16T15:44:07.323Z,39.09
2023-05-16T15:46:37.507Z,39.06
2023-05-16T15:49:09.891Z,38.58
2023-05-16T15:51:40.168Z,38.64
2023-05-16T15:54:12.752Z,39.02
2023-05-16T15:56:43.801Z,38.68
2023-05-16T15:59:14.518Z,38.63
2023-05-16T16:01:45.371Z,38.32
2023-05-16T16:04:16.200Z,38.70
2023-05-16T16:06:47.473Z,38.59
2023-05-16T16:09:21.296Z,38.85
2023-05-16T16:11:56.555Z,38.26
2023-05-16T16:14:27.601Z,38.17
2023-05-16T16:16:58.335Z,38.62
2023-05-16T16:19:29.677Z,38.26
2023-05-16T16:22:00.228Z,37.87
2023-05-16T16:24:33.037Z,37.89
2023-05-16T16:27:03.540Z,37.82
2023-05-16T16:29:33.632Z,37.77
2023-05-16T16:32:04.330Z,38.17
2023-05-16T16:34:35.184Z,38.26
2023-05-16T16:37:05.706Z,37.58
2023-05-16T16:39:38.643Z,38.22
2023-05-16T16:42:09.660Z,37.74
2023-05-16T16:44:40.283Z,37.77
2023-05-16T16:47:12.208Z,37.56
2023-05-16T16:49:43.142Z,37.27
2023-05-16T16:52:14.071Z,37.39
2023-05-16T16:54:46.991Z,37.41
2023-05-16T16:57:17.722Z,37.42
2023-05-16T16:59:52.265Z,37.75
2023-05-16T17:02:24.483Z,37.01
2023-05-16T17:04:57.666Z,37.75
2023-05-16T17:07:29.403Z,37.14
2023-05-16T17:10:17.364Z,37.05
2023-05-16T17:12:50.166Z,36.97
2023-05-16T17:15:21.341Z,37.21
2023-05-16T17:17:52.072Z,37.09
2023-05-16T17:20:21.881Z,37.41
2023-05-16T17:22:52.465Z,37.04
2023-05-16T17:25:25.340Z,37.23
2023-05-16T17:27:56.241Z,37.32
2023-05-16T17:30:27.143Z,37.51
2023-05-16T17:32:57.192Z,37.30
2023-05-16T17:35:28.564Z,37.74
2023-05-16T17:37:59.879Z,37.33
2023-05-16T17:40:32.506Z,37.79
2023-05-16T17:43:05.201Z,37.39
2023-05-16T17:45:36.682Z,37.45
2023-05-16T17:48:07.561Z,37.28
2023-05-16T17:50:39.739Z,37.83
2023-05-16T17:53:09.967Z,37.92
2023-05-16T17:55:43.211Z,37.42
2023-05-16T17:58:13.779Z,37.35
2023-05-16T18:00:44.129Z,37.95
2023-05-16T18:03:16.504Z,37.32
2023-05-16T18:05:50.387Z,37.42
2023-05-16T18:08:24.553Z,37.32
2023-05-16T18:11:02.474Z,37.57
2023-05-16T18:13:34.200Z,37.46
2023-05-16T18:16:06.894Z,37.90
2023-05-16T18:18:41.180Z,37.47
2023-05-16T18:21:13.197Z,37.78
2023-05-16T18:23:46.490Z,37.39
2023-05-16T18:26:21.334Z,37.90
2023-05-16T18:28:59.213Z,37.56
2023-05-16T18:31:38.753Z,37.73
2023-05-16T18:34:10.588Z,37.36
2023-05-16T18:36:55.658Z,37.43
2023-05-16T18:39:42.984Z,37.39
2023-05-16T18:42:28.025Z,37.83
2023-05-16T18:45:06.441Z,37.67
2023-05-16T18:47:45.859Z,37.97
2023-05-16T18:50:25.426Z,37.92
2023-05-16T18:53:05.135Z,37.83
2023-05-16T18:55:46.627Z,37.67
2023-05-16T18:58:32.951Z,37.96
2023-05-16T19:01:16.764Z,37.56
2023-05-16T19:03:56.538Z,38.15
2023-05-16T19:06:35.591Z,37.40
2023-05-16T19:09:12.281Z,37.68
2023-05-16T19:11:52.332Z,37.65
2023-05-16T19:14:30.652Z,37.58
2023-05-16T19:17:07.743Z,37.44
2023-05-16T19:19:39.831Z,37.84
2023-05-16T19:22:11.809Z,37.38
2023-05-16T19:24:41.707Z,37.76
2023-05-16T19:27:14.375Z,37.15
2023-05-16T19:29:51.238Z,37.48
2023-05-16T19:32:22.021Z,37.59
2023-05-16T19:34:55.285Z,37.31
2023-05-16T19:37:27.896Z,37.06
2023-05-16T19:39:59.729Z,37.48
2023-05-16T19:42:34.669Z,37.20
2023-05-16T19:45:09.026Z,37.62
2023-05-16T19:47:40.930Z,37.15
2023-05-16T19:50:13.347Z,37.09
2023-05-16T19:52:43.946Z,37.37
2023-05-16T19:55:14.421Z,37.57
2023-05-16T19:57:44.800Z,37.10
2023-05-16T20:00:19.556Z,37.39
2023-05-16T20:02:50.696Z,37.42
2023-05-16T20:05:23.506Z,37.49
2023-05-16T20:07:54.835Z,37.21
2023-05-16T20:10:25.434Z,37.16
2023-05-16T20:12:56.266Z,37.05
2023-05-16T20:15:29.696Z,37.09
2023-05-16T20:18:00.162Z,37.54
2023-05-16T20:20:30.339Z,37.41
2023-05-16T20:23:01.767Z,36.88
2023-05-16T20:25:32.458Z,37.42
2023-05-16T20:28:03.235Z,37.31
2023-05-16T20:30:35.809Z,37.04
2023-05-16T20:33:06.493Z,37.53
2023-05-16T20:35:42.360Z,37.32
2023-05-16T20:38:17.901Z,37.14
2023-05-16T20:40:52.020Z,37.25
2023-05-16T20:43:26.631Z,37.39
2023-05-16T20:46:02.418Z,37.52
2023-05-16T20:48:35.208Z,37.24
2023-05-16T20:51:09.030Z,37.20
2023-05-16T20:53:43.631Z,37.41
2023-05-16T20:56:18.186Z,37.38
2023-05-16T20:58:53.423Z,37.75
2023-05-16T21:01:29.608Z,37.76
2023-05-16T21:04:03.967Z,37.66
2023-05-16T21:06:39.825Z,37.17
2023-05-16T21:09:11.274Z,37.68
2023-05-16T21:11:43.213Z,37.74
2023-05-16T21:14:14.663Z,37.94
2023-05-16T21:16:50.332Z,37.96
2023-05-16T21:19:21.722Z,37.63
2023-05-16T21:21:52.441Z,37.97
2023-05-16T21:24:24.081Z,37.81
2023-05-16T21:26:54.619Z,37.68
2023-05-16T21:29:25.361Z,37.57
2023-05-16T21:31:57.474Z,37.77
2023-05-16T21:34:28.091Z,37.87
2023-05-16T21:36:59.190Z,37.96
2023-05-16T21:39:29.305Z,37.96
2023-05-16T21:42:01.210Z,38.65
2023-05-16T21:44:39.771Z,38.46
2023-05-16T21:47:12.478Z,38.06
2023-05-16T21:49:42.516Z,38.61
2023-05-16T21:52:13.175Z,38.32
2023-05-16T21:54:43.727Z,38.74
2023-05-16T21:57:14.254Z,38.92
2023-05-16T21:59:44.281Z,38.69
2023-05-16T22:02:16.888Z,38.87
2023-05-16T22:04:48.077Z,38.90
2023-05-16T22:07:18.249Z,38.90
2023-05-16T22:09:51.234Z,39.28
2023-05-16T22:12:21.460Z,39.17
2023-05-16T22:14:52.131Z,39.51
2023-05-16T22:17:23.790Z,39.40
2023-05-16T22:19:54.798Z,39.75
2023-05-16T22:22:25.572Z,39.76
2023-05-16T22:24:56.224Z,39.53
2023-05-16T22:27:26.263Z,39.79
2023-05-16T22:29:56.741Z,40.22
2023-05-16T22:32:29.098Z,39.56
2023-05-16T22:34:59.218Z,40.05
2023-05-16T22:37:29.706Z,39.94
2023-05-16T22:39:59.717Z,39.95
2023-05-16T22:42:30.784Z,39.80
2023-05-16T22:45:01.312Z,40.11
2023-05-16T22:47:33.163Z,40.41
2023-05-16T22:50:03.695Z,40.23
2023-05-16T22:52:33.667Z,40.59
2023-05-16T22:55:04.836Z,40.30
2023-05-16T22:57:35.456Z,40.49
2023-05-16T23:00:06.507Z,40.53
2023-05-16T23:02:38.621Z,40.73
2023-05-16T23:05:11.238Z,40.51
2023-05-16T23:07:41.795Z,40.77
2023-05-16T23:10:13.015Z,40.57
2023-05-16T23:12:43.146Z,40.83
2023-05-16T23:15:14.507Z,40.42
2023-05-16T23:17:46.602Z,40.81
2023-05-16T23:20:17.426Z,40.79
2023-05-16T23:22:48.092Z,41.08
2023-05-16T23:25:18.280Z,41.13
2023-05-16T23:27:48.998Z,41.06
2023-05-16T23:30:19.840Z,40.64
2023-05-16T23:32:52.172Z,40.84
2023-05-16T23:35:22.882Z,40.92
2023-05-16T23:37:53.122Z,40.94
2023-05-16T23:40:23.819Z,40.71
2023-05-16T23:42:54.253Z,40.90
2023-05-16T23:45:24.921Z,40.85
2023-05-16T23:47:57.546Z,40.76
2023-05-16T23:50:27.770Z,40.88
2023-05-16T23:52:57.841Z,41.32
2023-05-16T23:55:28.648Z,41.25
2023-05-16T23:57:58.968Z,40.98
